CloseHelpProblem

Burley Lions Spudman Triathlon

07/26/08


PlBibNameRepresenting Age DivisionLapsFinal TimeTime BackPaceAdjustmentBikeT2Run
167Mary ABSOLONLANDER WY USA18 F 45 -49001:51:18.5+00:00:00.001:05:51.60600:01:35.500
21979Amy SANYERSALT LAKE CITY UT USA18 F 45 -49001:55:53.7+00:04:35.201:05:40.00600:01:55.800
31610Laura MCARTHURSANDY UT USA18 F 45 -49001:56:00.4+00:04:41.901:04:31.80600:01:22.200
4155 DIEHARD DIVASANNA PODGORNEY, STACEY CHRISTENSON & CHRISTINE HEEREN25 W Team 107 - 137001:57:33.4+00:06:14.901:05:35.20600:00:46.100
52010Julia CASSIDYPARK CITY UT USA18 F 45 -49001:57:39.3+00:06:20.801:14:47.90600:02:07.100
6441Marilyn JOHNSONBOISE ID USA18 F 45 -49002:00:01.4+00:08:42.901:03:27.20600:01:38.100
7843Lynette BORUPOREM UT USA18 F 45 -49002:01:35.3+00:10:16.801:05:48.30600:01:25.700
71022Charlotte LAUGHLINOREGON CITY OR USA18 F 45 -49002:01:35.3+00:10:16.801:05:48.40600:02:28.700
92027Sidni TAYLORSALT LAKE CITY UT USA37 Athena002:02:40.2+00:11:21.701:05:46.70600:01:32.300
10301Paula ERICSONSALT LAKE CITY UT USA19 F 50 - 54002:03:20.9+00:12:02.401:05:37.90600:01:33.100
111935Mary GLAUSERSALT LAKE CITY UT USA19 F 50 - 54002:05:59.0+00:14:40.501:11:46.10600:02:25.300
12108Jody MOWERALPINE UT USA18 F 45 -49002:08:31.3+00:17:12.801:10:04.70600:01:49.500
131688 THIRD TIMES A CHARMCATHY EHLERS, DENISE ALEXANDER & BETH MALINA25 W Team 107 - 137002:09:11.6+00:17:53.101:15:12.70600:01:04.900
14955Joan HANSENPOCATELLO ID USA19 F 50 - 54002:09:15.4+00:17:56.901:05:50.20600:02:12.000
151216 SMART BLONDESSARAH MALIN-CRAFT, AMY GILLETTE & LAURA HOAR25 W Team 107 - 137002:09:15.9+00:17:57.401:15:22.60600:00:56.100
161236Jeri MABEYBOUNTIFUL UT USA19 F 50 - 54002:09:51.7+00:18:33.201:10:19.50600:01:30.900
171975 3 CRAZY FRIENDSMICHELLE MORGAN, SUSAN TAGGART & MARIDIN MAIER26 W Team 138 and Over002:10:51.6+00:19:33.101:11:49.20600:00:52.700
18272Judy DESMONDSTANSBURY PARK UT USA19 F 50 - 54002:11:45.4+00:20:26.901:15:20.70600:01:36.100
191411Elizabeth SHROPSHIREPARK CITY UT USA18 F 45 -49002:12:48.6+00:21:30.101:10:13.80600:02:27.200
20870 HILLGRAVESSUZANNE HILL, SHALANN GRAVES & MEGAN HILL23 W Team Under 75002:15:19.6+00:24:01.101:13:14.50600:00:51.700
21831Marylyne WITNEYSPRINGVILLE UT USA20 F 55 - 59002:15:30.8+00:24:12.301:09:41.00600:01:53.700
221410Kathleen BLANKPARK CITY UT USA19 F 50 - 54002:15:36.7+00:24:18.201:09:19.80600:03:21.100
231716 ACE IN THE HOLELISA TAYLOR, NICKI DOWDLE & AMY BRINKLEY25 W Team 107 - 137002:15:56.1+00:24:37.601:18:32.50600:00:50.700
241912Shannon ANDERSONSALT LAKE CITY UT USA19 F 50 - 54002:16:12.7+00:24:54.201:16:54.70600:02:23.500
251318 HENRICKSON/JONESLORI HENRICKSON, BONNIE JONES25 W Team 107 - 137002:16:19.9+00:25:01.401:18:37.20600:01:00.500
26952Carolyn COXSALT LAKE CITY UT USA18 F 45 -49002:16:33.7+00:25:15.201:15:27.00600:04:12.400
27181Susan GUNDYHAILEY ID USA19 F 50 - 54002:17:26.7+00:26:08.201:13:36.00600:03:03.100
28821Marie WHITESALT LAKE CITY UT USA18 F 45 -49002:17:57.4+00:26:38.901:13:38.00600:02:56.600
292074Christina YAZZIEOREM UT USA37 Athena002:18:13.9+00:26:55.401:10:13.80600:02:55.500
30717Kelesi FOLLETTPOCATELLO ID USA37 Athena002:19:03.2+00:27:44.701:12:20.70600:02:00.500
311830Alice SCHENKRUPERT ID USA19 F 50 - 54002:19:29.1+00:28:10.601:22:27.00600:01:30.200
32352Jan WOODSLC UT USA18 F 45 -49002:21:14.2+00:29:55.701:17:06.20600:02:32.800
331044Paula CRAWFORDOGDEN UT USA18 F 45 -49002:21:54.0+00:30:35.501:15:28.90600:02:34.100
341769Pauline HIGGINSSALT LAKE CITY UT USA21 F 60 - 64002:22:00.4+00:30:41.901:10:17.80600:02:13.300
35496 JAM SISTERSSHANNON ALLAN, JENNIFER BATES & NATALIE JOHNSON24 W Team 75 - 106002:22:30.2+00:31:11.701:20:40.60600:01:08.200
36967Gaye HOGGEEDEN UT USA20 F 55 - 59002:22:33.6+00:31:15.101:20:42.60600:02:28.500
371670 GETITDONEMCKELL BLAKE, STEPHANIE & SIDNEY24 W Team 75 - 106002:23:22.6+00:32:04.101:22:24.10600:00:53.500
38519Christina STARKSANDY UT USA37 Athena002:24:00.1+00:32:41.601:12:31.00600:02:55.900
391370 WHICESANSANDRA BERRYHILL, CECILEE PRICE-HUISH & WHITNEY REICH25 W Team 107 - 137002:25:20.1+00:34:01.601:36:35.60600:00:55.200
40909Rachel JOHNSONALPIN UT USA18 F 45 -49002:25:55.8+00:34:37.301:21:04.60600:04:58.100
411340Shawna SMARTSANDY UT USA18 F 45 -49002:26:51.1+00:35:32.601:20:33.60600:02:34.700
421710 CHENEYWENDI CHENEY, LAURA CHENEY & EMILY CHENEY24 W Team 75 - 106002:29:03.6+00:37:45.101:34:37.80600:00:49.500
431804Rita ALLREDBURLEY ID USA18 F 45 -49002:29:11.3+00:37:52.801:17:02.40600:03:09.700
441596Kalita FORDSALT LAKE CITY UT USA19 F 50 - 54002:29:39.8+00:38:21.301:20:47.60600:02:43.500
451260Lauri PRATTSALT LAKE CITY UT USA18 F 45 -49002:30:34.0+00:39:15.501:22:32.70600:04:29.300
46710Susan REEDSPRINGVILLE UT USA18 F 45 -49002:30:55.7+00:39:37.201:19:52.80600:03:32.800
471339Leslee HENSONMAPLETON UT USA19 F 50 - 54002:31:03.4+00:39:44.901:25:40.50600:02:54.700
481850Traci TEMPLEBURLEY ID USA18 F 45 -49002:32:58.9+00:41:40.401:17:02.10600:01:57.300
491927Camille NELSONRIVERTON UT USA19 F 50 - 54002:34:40.2+00:43:21.701:20:48.40600:02:46.700
501424 IDAHOANS AT HEARTJENA TURMAN, KELSEY PETERSEN23 W Team Under 75002:37:17.1+00:45:58.601:35:53.50600:03:01.900
511351Kristina HILLTWIN FALLS ID USA37 Athena002:37:42.3+00:46:23.801:21:08.90600:03:13.500
52388Jan JOHNSONSALT LAKE CITY UT USA37 Athena002:37:55.6+00:46:37.101:19:56.30600:05:41.100
531095 MOJO WORKINGINA BOSCO, KERI PERRIGOT & KAREN KONRAD25 W Team 107 - 137002:38:02.7+00:46:44.201:19:34.50600:01:27.100
541842Jan ALLENHEYBURN ID USA19 F 50 - 54002:38:59.4+00:47:40.901:15:56.40600:03:00.700
55589Eileen CHRISTENSENSANDY UT USA19 F 50 - 54002:39:01.0+00:47:42.501:21:02.90600:03:03.100
56751Barbara KERKMANNLOGAN UT USA19 F 50 - 54002:39:47.6+00:48:29.101:18:09.40600:03:25.100
57886 FOREVERGLADESLINDSEY BENCH, MEREDITH GLADE & GENTRI SEAWRIGHT23 W Team Under 75002:39:57.6+00:48:39.101:38:03.20600:00:52.700
581196Connie WARRHIDEAWAY VALLEY UT USA19 F 50 - 54002:40:17.4+00:48:58.901:22:06.70600:02:08.700
591838 STILL ROCKINRONDA SEARLE, AMBER TELLERIA & PAULEE LARSON25 W Team 107 - 137002:41:44.4+00:50:25.901:24:01.90600:00:52.500
6086Teresa BAKERSALT LAKE CITY UT USA18 F 45 -49002:42:05.4+00:50:46.901:26:19.20600:03:22.700
611134 LOU & LEESEELISA FAWCETT, LAURA FAWCETT23 W Team Under 75002:42:06.7+00:50:48.201:41:25.10600:00:57.000
62972Mary Ann DEWAALHOLLADAY UT USA19 F 50 - 54002:43:20.8+00:52:02.301:32:23.50600:02:11.200
631489 MISMIXMELODY CUNNINGHAM, BARBARA CUNNINGHAM & JUDI FEHRINGER26 W Team 138 and Over002:43:32.4+00:52:13.901:20:56.80600:01:16.000
641648Nancy HALEOREM UT USA18 F 45 -49002:44:28.1+00:53:09.601:25:36.80600:02:12.200
65239Mary WRIGHTSLC UT USA18 F 45 -49002:44:52.9+00:53:34.400:18:57.35600:03:48.90001:20:29.30000:02:15.50000:59:21.900
661099Shannon CLOWARDSANDY UT USA18 F 45 -49002:46:58.7+00:55:40.200:19:45.52000:05:23.500
67942Kerol PRATTOMAHA NE USA37 Athena002:47:43.4+00:56:24.901:27:21.10600:02:12.000
681097Shawnie DANCESALT LAKE CITY UT USA20 F 55 - 59002:48:55.7+00:57:37.201:28:44.10600:02:12.700
6981Jill TANNERSPANISH FORK UT USA37 Athena002:50:48.3+00:59:29.801:18:40.30600:02:33.600
70613Lee STARNESHIGHLAND UT USA20 F 55 - 59002:51:27.5+01:00:09.001:27:17.50600:05:21.300
71343 HANSENJAMIE WIGHT, SHALENE SWENSON24 W Team 75 - 106002:51:41.7+01:00:23.201:31:13.10600:01:51.100
721584Cynthia WILLIAMSPROVO UT USA19 F 50 - 54002:51:54.7+01:00:36.201:27:15.90600:03:37.300
73186Melinda WRIGHTREDLANDS CA USA19 F 50 - 54002:53:12.5+01:01:54.001:32:08.00600:03:24.800
74748Karen MCARTHURALPINE UT USA18 F 45 -49002:54:44.6+01:03:26.101:31:36.50600:03:53.600
75337 2 PREGOS AND 1 GIMPSarah Jones, Lena McIllece, Emily Christman24 W Team 75 - 106002:55:05.6+01:03:47.101:37:17.40600:01:04.100
761185Rita KINNEBREWPARK CITY UT USA19 F 50 - 54002:56:42.5+01:05:24.001:37:24.00600:03:11.500
771750 IDAHO SPUDSNATALIE JENKINS, COLEEN LUNDQUIST & LORI PINCOCK25 W Team 107 - 137002:57:22.9+01:06:04.401:42:49.40600:00:59.900
781875 HUNTER & NEIBAURRACHEL HUNTER, JILL NEIBAUR25 W Team 107 - 137002:57:23.2+01:06:04.701:39:30.00600:00:53.800
791219Anna KIRBYSPRINGVILLE UT USA37 Athena003:00:12.0+01:08:53.501:29:59.00600:02:35.300
80334Maria BRINTONDRAPER UT USA37 Athena003:01:06.3+01:09:47.801:34:45.90600:02:45.800
81763Tracie COTTAMANTHEM AZ USA37 Athena003:01:12.4+01:09:53.901:24:06.00600:02:47.600
82726Nancy SCHRIEVERPLEASANT GROVE UT USA20 F 55 - 59003:02:13.5+01:10:55.001:30:28.20600:06:19.100
83647Mikelle REMINGTONMURRAY UT USA37 Athena003:03:39.8+01:12:21.301:31:16.80600:02:31.700
841834 WOODBURY, LEE & PARKLINDA WOODBURY, ANGELA LEE & LACEY PARKE25 W Team 107 - 137003:03:55.5+01:12:37.001:57:18.00600:00:47.700
851766Cindy MICKELSENPOCATELLO ID USA19 F 50 - 54003:06:22.2+01:15:03.701:31:48.10600:02:16.100
861450Connie STAUFFERALPINE UT USA20 F 55 - 59003:06:26.6+01:15:08.101:32:05.40600:04:48.900
87604Jerusha HARDINGWOODS CROSS UT USA37 Athena003:07:10.2+01:15:51.701:30:25.00600:02:43.800
882077Linda SIMMONSGRACE ID USA22 F 65 and Over003:21:14.2+01:29:55.701:38:58.30600:07:55.000
891471Terri HILLBURLEY ID USA18 F 45 -49003:21:23.4+01:30:04.901:42:02.60600:04:18.800
901304 WIERD SISTERSANNA MORRIS, ESTHER MORRIS & RACHEL MORRIS23 W Team Under 75003:22:10.7+01:30:52.201:49:45.10600:00:56.800
91508Amy GREERDRAPER UT USA37 Athena003:23:23.7+01:32:05.200:26:27.72000:03:40.40001:36:44.40000:03:32.60001:12:58.600
1430Marilyn DILLONSALT LAKE CITY UT USA20 F 55 - 590DNF01:45:51.006
789Diane DOWNHOURSALT LAKE CITY UT USA18 F 45 -490DNF
704Sara GREENSALT LAKE CITY UT USA20 F 55 - 590DNF01:28:47.306
1098Alyson HARDINGSALT LAKE CITY UT USA18 F 45 -490DNF01:27:37.906
1474Pamela HELLEROMAHA NE USA37 Athena0DNF
1853Frances MCCRAYBURLEY ID USA18 F 45 -490DNF
816Holli MUHLESTEINOREM UT USA37 Athena0DNF
104Kristie NATIONDRAPER UT USA37 Athena0DNF
1598Michelle NATIONSAN DIEGO CA USA37 Athena0DNF
734Camie PARSONSIDAHO FALLS ID USA37 Athena0DNF00:21:57.106
1785Rebecca YIHPARK CITY UT USA20 F 55 - 590DNF
989 BEVS TEAMBEVERLY STONE, FRANCIS ROPER & BOBO DEVENS26 W Team 138 and Over0DNS
1170Athena BRESSEL-GARRETTALTADENA CA USA19 F 50 - 540DNS
538Suzette CANNONSANDY UT USA18 F 45 -490DNS
1483Sarah DAVIESNORTH SALT LAKE UT USA37 Athena0DNS
303Margie DOBSONMAPLETON UT USA20 F 55 - 590DNS
605Kara FABELANAMPA ID USA19 F 50 - 540DNS
65Ann-therese GUILLORYLAYTON UT USA37 Athena0DNS
569Heidi HAMMACKSAN FRANCISCO CA USA37 Athena0DNS
1041Elna HAMPSANDY UT USA18 F 45 -490DNS
1031Michelle KAUFUSIPROVO UT USA37 Athena0DNS
1818Michele LEWISCEDAR HILLS UT USA37 Athena0DNS
1107Shiona MACKAYOREM UT USA20 F 55 - 590DNS
439 MAIN LADIESBELINDA LARA, ASHLIE MARIE LARA & LINSEY REY LARA23 W Team Under 750DNS
1581Merrilee MANWARINGSPRINGVILLE UT USA18 F 45 -490DNS
1924 MICKELSON & MARTINKRISTEN MICKELSON, KIMBERLY MARTIN24 W Team 75 - 1060DNS
1920Melva MORRISPLEASANT GROVE UT USA19 F 50 - 540DNS
1741Vivian OAKESSANDY UT USA18 F 45 -490DNS
822Shawna RASMUSSENSALT LAKE CITY UT USA37 Athena0DNS
1137Jennifer ROLLINSHERRIMAN UT USA37 Athena0DNS
797Jean SCHLIERUINTAH UT USA19 F 50 - 540DNS
1133Jane SCHOFIELDPLEASANT GROVE UT USA37 Athena0DNS
1922Leigh STEVENSSALT LAKE CITY UT USA18 F 45 -490DNS
971Sydney TERVORTSALT LAKE CITY UT USA19 F 50 - 540DNS
1799 UTAH DOLLSTRISHA DAYTON, ALLISON DAYTON &24 W Team 75 - 1060DNS
489Mary Ann WALKERWEISER ID USA18 F 45 -490DNS
1188Jan WATTSSANDY UT USA18 F 45 -490DNS
1080 WILFORD GIRLSKATIE WOOD, MELANIE OLSEN & NIKKI STOKOE24 W Team 75 - 1060DNS
855Roberta ZIMMERMANCHUBBUCK ID USA19 F 50 - 540DNS